createdAt,value
2018-07-30T00:00:26.501Z,18.02
2018-07-30T00:03:28.901Z,18.09
2018-07-30T00:06:31.285Z,18.13
2018-07-30T00:09:33.767Z,18.06
2018-07-30T00:12:36.895Z,17.95
2018-07-30T00:15:39.240Z,17.82
2018-07-30T00:18:41.539Z,17.78
2018-07-30T00:21:44.023Z,17.74
2018-07-30T00:24:46.354Z,17.40
2018-07-30T00:27:48.842Z,17.34
2018-07-30T00:30:51.434Z,17.39
2018-07-30T00:33:54.016Z,17.33
2018-07-30T00:36:59.916Z,17.30
2018-07-30T00:40:02.277Z,17.31
2018-07-30T00:43:05.818Z,17.34
2018-07-30T00:46:08.161Z,17.33
2018-07-30T00:49:11.422Z,17.39
2018-07-30T00:52:14.814Z,17.46
2018-07-30T00:55:17.158Z,17.50
2018-07-30T00:58:19.685Z,17.56
2018-07-30T01:01:22.088Z,17.60
2018-07-30T01:04:24.563Z,17.54
2018-07-30T01:07:26.890Z,17.48
2018-07-30T01:10:29.282Z,17.44
2018-07-30T01:13:31.644Z,17.44
2018-07-30T01:16:34.296Z,17.49
2018-07-30T01:19:36.773Z,17.47
2018-07-30T01:22:39.166Z,17.48
2018-07-30T01:25:42.664Z,17.39
2018-07-30T01:28:45.041Z,17.29
2018-07-30T01:31:47.288Z,17.23
2018-07-30T01:34:49.637Z,17.15
2018-07-30T01:37:51.930Z,17.09
2018-07-30T01:41:28.820Z,17.05
2018-07-30T01:44:31.327Z,17.02
2018-07-30T01:47:33.664Z,17.02
2018-07-30T01:50:36.123Z,17.02
2018-07-30T01:53:38.632Z,16.91
2018-07-30T01:56:41.072Z,16.87
2018-07-30T01:59:43.537Z,16.87
2018-07-30T02:02:45.832Z,17.05
2018-07-30T02:05:48.363Z,17.20
2018-07-30T02:08:50.916Z,17.23
2018-07-30T02:11:53.426Z,17.14
2018-07-30T02:14:55.982Z,16.97
2018-07-30T02:18:02.269Z,16.91
2018-07-30T02:21:04.824Z,16.90
2018-07-30T02:24:07.342Z,16.92
2018-07-30T02:27:09.912Z,16.93
2018-07-30T02:30:12.405Z,16.86
2018-07-30T02:33:14.948Z,16.85
2018-07-30T02:36:17.397Z,16.81
2018-07-30T02:39:19.884Z,16.67
2018-07-30T02:42:22.275Z,16.58
2018-07-30T02:45:24.705Z,16.36
2018-07-30T02:48:27.134Z,16.28
2018-07-30T02:51:29.705Z,16.24
2018-07-30T02:54:32.096Z,16.17
2018-07-30T02:57:37.801Z,16.02
2018-07-30T03:04:44.871Z,15.99
2018-07-30T03:13:31.472Z,16.07
2018-07-30T03:22:51.929Z,16.11
2018-07-30T10:18:14.240Z,33.91
2018-07-30T10:21:16.489Z,34.63
2018-07-30T10:24:18.784Z,34.70
2018-07-30T10:27:21.000Z,34.49
2018-07-30T10:33:12.804Z,34.05
2018-07-30T10:36:15.116Z,32.66
2018-07-30T10:39:17.401Z,32.09
2018-07-30T10:42:19.613Z,31.68
2018-07-30T10:45:22.008Z,32.49
2018-07-30T10:48:24.326Z,32.52
2018-07-30T10:51:26.559Z,33.43
2018-07-30T10:54:29.867Z,34.21
2018-07-30T10:57:32.134Z,33.89
2018-07-30T11:00:34.449Z,33.52
2018-07-30T11:03:36.710Z,32.86
2018-07-30T11:06:39.004Z,32.85
2018-07-30T11:09:41.407Z,32.37
2018-07-30T11:12:43.567Z,32.66
2018-07-30T11:15:45.953Z,32.42
2018-07-30T11:18:48.256Z,32.30
2018-07-30T11:21:50.559Z,32.40
2018-07-30T11:24:52.827Z,32.62
2018-07-30T11:27:55.114Z,32.59
2018-07-30T11:30:57.374Z,32.69
2018-07-30T11:33:59.622Z,33.05
2018-07-30T11:37:01.862Z,34.11
2018-07-30T11:40:04.323Z,34.29
2018-07-30T11:43:06.580Z,34.88
2018-07-30T11:46:25.391Z,33.92
2018-07-30T11:49:27.686Z,33.69
2018-07-30T11:52:30.007Z,33.45
2018-07-30T11:55:32.226Z,33.53
2018-07-30T11:58:34.485Z,33.37
2018-07-30T12:01:36.798Z,33.23
2018-07-30T12:04:39.126Z,33.67
2018-07-30T12:07:41.469Z,34.21
2018-07-30T12:10:43.863Z,34.96
2018-07-30T12:13:46.193Z,34.53
2018-07-30T12:16:48.524Z,35.00
2018-07-30T12:19:50.877Z,34.71
2018-07-30T12:22:53.332Z,33.70
2018-07-30T12:25:58.278Z,33.34
2018-07-30T12:29:00.670Z,33.41
2018-07-30T12:32:03.370Z,34.35
2018-07-30T12:35:05.808Z,33.93
2018-07-30T12:38:08.165Z,33.44
2018-07-30T12:41:10.516Z,33.02
2018-07-30T12:44:12.742Z,32.98
2018-07-30T12:47:16.080Z,33.14
2018-07-30T12:50:18.378Z,33.98
2018-07-30T12:53:20.671Z,35.02
2018-07-30T12:56:22.933Z,35.24
2018-07-30T12:59:25.314Z,35.65
2018-07-30T13:02:28.586Z,36.50
2018-07-30T13:05:30.894Z,34.79
2018-07-30T13:08:33.231Z,34.70
2018-07-30T13:11:35.579Z,34.76
2018-07-30T13:14:37.923Z,35.42
2018-07-30T13:17:40.267Z,35.32
2018-07-30T13:20:45.577Z,35.68
2018-07-30T13:23:47.898Z,35.19
2018-07-30T13:26:50.277Z,36.04
2018-07-30T13:29:52.495Z,37.05
2018-07-30T13:32:54.835Z,37.42
2018-07-30T13:35:57.275Z,36.18
2018-07-30T13:38:59.637Z,34.75
2018-07-30T13:42:01.988Z,34.42
2018-07-30T13:45:04.775Z,34.59
2018-07-30T13:48:07.215Z,35.00
2018-07-30T13:51:09.672Z,34.39
2018-07-30T13:54:12.177Z,33.75
2018-07-30T13:57:16.648Z,34.01
2018-07-30T14:00:20.874Z,34.94
2018-07-30T14:03:24.201Z,35.87
2018-07-30T14:06:31.240Z,36.76
2018-07-30T14:09:34.217Z,38.22
2018-07-30T14:12:36.420Z,38.46
2018-07-30T14:15:38.675Z,37.69
2018-07-30T14:18:40.961Z,37.21
2018-07-30T14:21:48.140Z,36.23
2018-07-30T14:24:50.629Z,35.73
2018-07-30T14:27:52.894Z,34.93
2018-07-30T14:30:55.092Z,35.19
2018-07-30T14:33:57.429Z,35.48
2018-07-30T14:36:59.734Z,35.19
2018-07-30T14:40:06.596Z,34.22
2018-07-30T14:43:08.828Z,34.38
2018-07-30T14:46:11.195Z,34.18
2018-07-30T14:49:13.439Z,34.49
2018-07-30T14:52:15.856Z,34.93
2018-07-30T14:55:18.090Z,35.27
2018-07-30T14:58:20.418Z,35.13
2018-07-30T15:01:22.680Z,35.50
2018-07-30T15:04:25.001Z,35.53
2018-07-30T15:07:27.218Z,36.02
2018-07-30T15:10:29.436Z,35.91
2018-07-30T15:13:31.654Z,35.60
2018-07-30T15:16:34.014Z,34.26
2018-07-30T15:19:36.356Z,34.22
2018-07-30T15:22:38.595Z,34.33
2018-07-30T15:25:41.011Z,34.60
2018-07-30T15:28:43.229Z,34.74
2018-07-30T15:31:45.482Z,34.47
2018-07-30T15:34:47.737Z,33.93
2018-07-30T15:37:49.980Z,33.81
2018-07-30T15:40:52.295Z,33.83
2018-07-30T15:43:54.606Z,33.91
2018-07-30T15:46:56.891Z,34.22
2018-07-30T15:49:59.194Z,34.29
2018-07-30T15:53:01.464Z,34.76
2018-07-30T15:56:03.725Z,35.13
2018-07-30T15:59:06.031Z,35.52
2018-07-30T16:02:08.371Z,35.66
2018-07-30T16:05:14.820Z,35.85
2018-07-30T16:08:17.159Z,36.95
2018-07-30T16:11:21.071Z,36.99
2018-07-30T16:14:23.416Z,35.53
2018-07-30T16:17:25.846Z,36.07
2018-07-30T16:20:28.116Z,36.39
2018-07-30T16:23:30.566Z,36.69
2018-07-30T16:26:33.045Z,35.29
2018-07-30T16:29:35.916Z,33.96
2018-07-30T16:32:38.401Z,33.92
2018-07-30T16:35:40.926Z,34.32
2018-07-30T16:38:43.365Z,33.78
2018-07-30T16:41:45.705Z,33.39
2018-07-30T16:44:48.166Z,32.99
2018-07-30T16:47:50.598Z,32.74
2018-07-30T16:50:52.914Z,32.65
2018-07-30T16:53:55.347Z,32.43
2018-07-30T16:56:57.730Z,32.37
2018-07-30T17:00:00.035Z,32.29
2018-07-30T17:03:02.455Z,32.21
2018-07-30T17:06:05.002Z,32.23
2018-07-30T17:09:09.602Z,32.59
2018-07-30T17:12:11.926Z,32.78
2018-07-30T17:15:14.248Z,32.83
2018-07-30T17:18:17.730Z,32.66
2018-07-30T17:21:20.031Z,32.56
2018-07-30T17:24:22.286Z,32.32
2018-07-30T17:27:24.661Z,32.18
2018-07-30T17:30:26.937Z,32.16
2018-07-30T17:33:30.229Z,32.03
2018-07-30T17:36:32.529Z,31.93
2018-07-30T17:39:34.807Z,31.69
2018-07-30T17:42:37.244Z,31.48
2018-07-30T17:45:39.561Z,31.38
2018-07-30T17:48:41.737Z,32.22
2018-07-30T17:51:43.993Z,32.89
2018-07-30T17:54:46.299Z,33.13
2018-07-30T17:57:48.581Z,33.87
2018-07-30T18:00:50.862Z,34.59
2018-07-30T18:03:53.196Z,35.19
2018-07-30T18:06:56.553Z,35.08
2018-07-30T18:09:58.835Z,34.43
2018-07-30T18:13:01.133Z,33.36
2018-07-30T18:16:03.564Z,33.31
2018-07-30T18:19:05.976Z,33.54
2018-07-30T18:22:08.361Z,33.95
2018-07-30T18:25:10.774Z,34.16
2018-07-30T18:28:13.150Z,34.21
2018-07-30T18:31:15.586Z,34.25
2018-07-30T18:34:18.102Z,34.14
2018-07-30T18:37:20.614Z,33.85
2018-07-30T18:40:22.969Z,33.47
2018-07-30T18:43:25.290Z,33.00
2018-07-30T18:46:28.589Z,32.46
2018-07-30T18:49:31.106Z,31.90
2018-07-30T18:52:33.507Z,31.33
2018-07-30T18:55:36.195Z,30.69
2018-07-30T18:58:38.565Z,30.10
2018-07-30T19:01:40.894Z,29.51
2018-07-30T19:04:43.300Z,28.87
2018-07-30T19:07:45.685Z,28.41
2018-07-30T19:10:48.111Z,27.96
2018-07-30T19:13:50.525Z,27.58
2018-07-30T19:16:53.521Z,27.17
2018-07-30T19:19:55.804Z,26.82
2018-07-30T19:22:58.184Z,26.51
2018-07-30T19:26:00.774Z,26.23
2018-07-30T19:29:03.246Z,26.00
2018-07-30T19:32:05.644Z,25.79
2018-07-30T19:35:08.043Z,25.58
2018-07-30T19:38:10.342Z,25.38
2018-07-30T19:41:12.682Z,25.17
2018-07-30T19:44:15.128Z,24.96
2018-07-30T19:47:17.506Z,24.79
2018-07-30T19:50:19.907Z,24.66
2018-07-30T19:53:22.286Z,24.56
2018-07-30T19:56:24.654Z,24.43
2018-07-30T19:59:27.000Z,24.27
2018-07-30T20:02:29.306Z,24.09
2018-07-30T20:05:31.602Z,23.93
2018-07-30T20:08:33.973Z,23.72
2018-07-30T20:11:36.683Z,23.53
2018-07-30T20:14:39.904Z,23.38
2018-07-30T20:17:42.282Z,23.29
2018-07-30T20:20:44.628Z,23.15
2018-07-30T20:23:46.964Z,23.02
2018-07-30T20:26:49.250Z,22.96
2018-07-30T20:29:51.534Z,23.04
2018-07-30T20:32:53.762Z,23.04
2018-07-30T20:36:04.698Z,23.03
2018-07-30T20:39:07.892Z,23.02
2018-07-30T20:42:10.261Z,22.97
2018-07-30T20:45:12.590Z,22.89
2018-07-30T20:48:14.940Z,22.78
2018-07-30T20:51:17.272Z,22.62
2018-07-30T20:54:19.506Z,22.49
2018-07-30T20:57:21.895Z,22.41
2018-07-30T21:00:24.211Z,22.32
2018-07-30T21:03:26.957Z,22.13
2018-07-30T21:06:29.268Z,22.03
2018-07-30T21:09:32.480Z,21.98
2018-07-30T21:12:34.738Z,21.91
2018-07-30T21:15:37.004Z,21.88
2018-07-30T21:18:40.283Z,21.79
2018-07-30T21:21:42.536Z,21.66
2018-07-30T21:24:44.776Z,21.76
2018-07-30T21:27:47.054Z,21.73
2018-07-30T21:30:49.392Z,21.71
2018-07-30T21:33:51.722Z,21.79
2018-07-30T21:36:53.972Z,21.82
2018-07-30T21:39:56.189Z,21.86
2018-07-30T21:42:58.427Z,21.87
2018-07-30T21:46:00.675Z,21.86
2018-07-30T21:49:02.927Z,21.82
2018-07-30T21:52:05.246Z,21.77
2018-07-30T21:55:07.564Z,21.66
2018-07-30T21:58:09.858Z,21.53
2018-07-30T22:01:12.174Z,21.39
2018-07-30T22:04:14.573Z,21.27
2018-07-30T22:07:16.898Z,21.15
2018-07-30T22:10:21.767Z,21.01
2018-07-30T22:13:24.171Z,20.92
2018-07-30T22:16:26.634Z,20.85
2018-07-30T22:19:29.076Z,20.80
2018-07-30T22:22:31.669Z,20.72
2018-07-30T22:25:33.951Z,20.71
2018-07-30T22:28:36.345Z,20.69
2018-07-30T22:31:38.745Z,20.68
2018-07-30T22:34:41.111Z,20.60
2018-07-30T22:37:43.464Z,20.51
2018-07-30T22:40:45.837Z,20.50
2018-07-30T22:43:48.185Z,20.48
2018-07-30T22:46:50.482Z,20.54
2018-07-30T22:49:52.869Z,20.61
2018-07-30T22:52:55.229Z,20.59
2018-07-30T22:55:57.554Z,20.49
2018-07-30T22:58:59.860Z,20.42
2018-07-30T23:02:02.298Z,20.27
2018-07-30T23:05:05.017Z,19.85
2018-07-30T23:08:07.356Z,19.54
2018-07-30T23:11:09.683Z,19.49
2018-07-30T23:14:11.978Z,19.44
2018-07-30T23:17:14.362Z,19.44
2018-07-30T23:20:16.634Z,19.49
2018-07-30T23:23:19.057Z,19.48
2018-07-30T23:26:21.404Z,19.45
2018-07-30T23:29:23.702Z,19.47
2018-07-30T23:32:26.316Z,19.53
2018-07-30T23:35:28.765Z,19.57
2018-07-30T23:38:31.088Z,19.58
2018-07-30T23:41:33.434Z,19.58
2018-07-30T23:44:35.686Z,19.60
2018-07-30T23:47:38.066Z,19.56
2018-07-30T23:50:40.332Z,19.52
2018-07-30T23:53:42.688Z,19.50
2018-07-30T23:56:44.965Z,19.43
2018-07-30T23:59:47.317Z,19.36
